Stillwell, Ohio
Current Conditions -  °F | °C
As of 1:16 AM on Sunday 23 Nov 2014 (Local Time) from K4I3 Reporting Station
Moderate Rain Moderate Rain  
Wind Chill: 46°   Ceiling: 4800
Heat Index: 48°   Visibility: 10mi
Dew Point: 34°   Wind: 6mph
Humidity: 57%   Direction: 210°SSW
Pressure: 30.06"   Gusts: NA
Location:  40.4765°N, 82.0295°W
Report Text: K4I3 230616Z AUTO 21005KT 10SM RA SCT009 BKN048 BKN050 09/01 A3006 RMK AO2
Loading
Personal Weather Stations






























Interactive Weather Map New forecast layout! Learn more

10-Day Weather Forecast

Advertisements
Track Severe Weather on mobile